createdAt,value
2022-09-02T00:06:24.789Z,11.23
2022-09-02T00:11:31.555Z,11.77
2022-09-02T00:16:35.794Z,11.75
2022-09-02T00:21:39.341Z,11.40
2022-09-02T00:26:43.098Z,11.45
2022-09-02T00:31:47.855Z,11.48
2022-09-02T00:36:51.527Z,11.82
2022-09-02T00:41:55.200Z,11.05
2022-09-02T00:47:01.733Z,11.60
2022-09-02T00:52:08.090Z,11.07
2022-09-02T00:57:15.599Z,11.25
2022-09-02T01:02:19.729Z,11.95
2022-09-02T01:07:26.242Z,11.02
2022-09-02T01:12:31.086Z,10.98
2022-09-02T01:17:35.708Z,11.23
2022-09-02T01:22:43.699Z,10.77
2022-09-02T01:27:51.515Z,11.23
2022-09-02T01:32:55.209Z,10.02
2022-09-02T01:38:00.003Z,11.75
2022-09-02T01:43:07.786Z,11.15
2022-09-02T01:48:13.187Z,11.20
2022-09-02T01:53:17.677Z,12.05
2022-09-02T01:58:23.722Z,11.68
2022-09-02T02:03:27.802Z,12.45
2022-09-02T02:08:34.705Z,12.73
2022-09-02T02:13:38.486Z,12.18
2022-09-02T02:18:42.649Z,12.45
2022-09-02T02:23:46.481Z,12.57
2022-09-02T02:28:50.196Z,12.65
2022-09-02T02:33:55.038Z,14.00
2022-09-02T02:38:59.273Z,13.68
2022-09-02T02:44:02.677Z,13.48
2022-09-02T02:49:07.096Z,14.15
2022-09-02T02:54:11.264Z,15.38
2022-09-02T02:59:14.793Z,14.25
2022-09-02T03:04:18.263Z,14.30
2022-09-02T03:09:22.170Z,14.55
2022-09-02T03:14:28.201Z,14.95
2022-09-02T03:19:34.511Z,14.80
2022-09-02T03:24:38.748Z,14.60
2022-09-02T03:29:43.271Z,15.13
2022-09-02T03:34:47.700Z,15.20
2022-09-02T03:39:51.405Z,15.40
2022-09-02T03:44:56.106Z,15.27
2022-09-02T03:49:59.746Z,15.05
2022-09-02T03:55:05.936Z,14.60
2022-09-02T04:00:11.698Z,15.38
2022-09-02T04:05:18.918Z,15.75
2022-09-02T04:10:23.874Z,15.75
2022-09-02T04:15:28.381Z,15.60
2022-09-02T04:20:31.921Z,15.45
2022-09-02T04:25:43.124Z,15.07
2022-09-02T04:30:48.158Z,14.35
2022-09-02T04:35:52.760Z,15.43
2022-09-02T04:40:57.295Z,14.55
2022-09-02T04:46:03.812Z,15.65
2022-09-02T04:51:13.827Z,15.43
2022-09-02T04:56:28.027Z,14.73
2022-09-02T05:01:35.114Z,13.65
2022-09-02T05:06:44.962Z,14.40
2022-09-02T05:11:53.887Z,13.57
2022-09-02T05:17:05.131Z,12.73
2022-09-02T05:22:17.335Z,14.18
2022-09-02T05:27:21.620Z,15.90
2022-09-02T05:32:27.875Z,14.40
2022-09-02T05:37:31.943Z,12.38
2022-09-02T05:42:36.679Z,13.90
2022-09-02T05:47:41.075Z,12.80
2022-09-02T05:52:45.268Z,13.50
2022-09-02T05:57:48.871Z,13.27
2022-09-02T06:02:53.204Z,11.88
2022-09-02T06:08:07.861Z,13.65
2022-09-02T06:13:13.912Z,13.27
2022-09-02T06:18:18.764Z,13.85
2022-09-02T06:23:26.411Z,12.85
2022-09-02T06:28:29.825Z,13.52
2022-09-02T06:33:35.269Z,13.68
2022-09-02T06:38:45.971Z,13.20
2022-09-02T06:49:01.571Z,13.68
2022-09-02T06:54:06.808Z,13.38
2022-09-02T06:59:13.308Z,14.50
2022-09-02T07:04:27.065Z,22.88
2022-09-02T07:09:32.808Z,13.63
2022-09-02T07:14:46.300Z,14.13
2022-09-02T07:19:53.542Z,14.95
2022-09-02T07:24:58.584Z,14.40
2022-09-02T07:30:07.738Z,15.73
2022-09-02T07:35:15.740Z,14.40
2022-09-02T07:40:23.657Z,14.60
2022-09-02T07:45:28.196Z,14.32
2022-09-02T07:50:31.813Z,14.80
2022-09-02T07:55:38.344Z,13.73
2022-09-02T08:00:46.518Z,13.65
2022-09-02T08:05:52.874Z,15.55
2022-09-02T08:10:56.677Z,15.82
2022-09-02T08:16:00.119Z,15.23
2022-09-02T08:21:09.878Z,14.52
2022-09-02T08:26:13.598Z,14.25
2022-09-02T08:31:17.114Z,15.38
2022-09-02T08:36:20.643Z,16.15
2022-09-02T08:41:34.074Z,15.85
2022-09-02T08:46:37.369Z,15.18
2022-09-02T08:51:46.523Z,15.57
2022-09-02T08:56:56.427Z,15.48
2022-09-02T09:02:06.683Z,16.13
2022-09-02T09:07:29.206Z,14.52
2022-09-02T09:13:12.955Z,15.73
2022-09-02T09:18:49.576Z,15.02
2022-09-02T09:23:55.866Z,15.80
2022-09-02T09:29:04.779Z,15.63
2022-09-02T09:34:13.454Z,17.17
2022-09-02T09:39:28.482Z,15.13
2022-09-02T09:44:35.525Z,15.20
2022-09-02T09:49:40.887Z,16.95
2022-09-02T09:54:45.682Z,16.30
2022-09-02T09:59:50.000Z,16.40
2022-09-02T10:05:27.918Z,16.20
2022-09-02T10:10:33.112Z,16.25
2022-09-02T10:15:49.609Z,16.25
2022-09-02T10:21:16.695Z,15.80
2022-09-02T10:26:40.375Z,14.70
2022-09-02T10:32:11.814Z,16.25
2022-09-02T10:37:23.503Z,15.60
2022-09-02T10:43:04.819Z,15.25
2022-09-02T10:48:16.938Z,15.68
2022-09-02T10:53:43.189Z,15.32
2022-09-02T10:59:04.528Z,16.90
2022-09-02T11:04:48.340Z,14.30
2022-09-02T11:10:01.771Z,14.82
2022-09-02T11:15:24.964Z,15.20
2022-09-02T11:20:45.957Z,14.35
2022-09-02T11:26:16.043Z,16.08
2022-09-02T11:31:46.237Z,14.75
2022-09-02T11:36:49.998Z,15.32
2022-09-02T11:42:14.507Z,14.82
2022-09-02T11:47:27.441Z,15.63
2022-09-02T11:52:52.874Z,15.60
2022-09-02T11:57:58.512Z,14.60
2022-09-02T12:03:16.795Z,15.40
2022-09-02T12:08:35.560Z,15.82
2022-09-02T12:13:45.026Z,15.13
2022-09-02T12:18:54.398Z,14.75
2022-09-02T12:24:02.300Z,15.13
2022-09-02T12:29:27.019Z,15.95
2022-09-02T12:34:32.742Z,14.35
2022-09-02T12:39:41.702Z,13.93
2022-09-02T12:45:00.037Z,16.35
2022-09-02T12:50:23.456Z,15.40
2022-09-02T12:55:32.442Z,13.57
2022-09-02T13:00:52.265Z,15.35
2022-09-02T13:06:17.439Z,15.02
2022-09-02T13:11:58.402Z,14.88
2022-09-02T13:17:35.039Z,14.35
2022-09-02T13:23:01.646Z,16.70
2022-09-02T13:28:47.549Z,17.02
2022-09-02T13:34:13.811Z,19.40
2022-09-02T13:39:26.657Z,17.48
2022-09-02T13:44:30.056Z,17.25
2022-09-02T13:49:40.535Z,17.85
2022-09-02T13:54:48.002Z,17.48
2022-09-02T13:59:56.851Z,17.88
2022-09-02T14:05:07.409Z,17.75
2022-09-02T14:10:17.236Z,17.20
2022-09-02T14:15:27.377Z,16.70
2022-09-02T14:20:30.865Z,18.77
2022-09-02T14:25:39.546Z,18.25
2022-09-02T14:30:43.009Z,17.60
2022-09-02T14:36:03.303Z,18.35
2022-09-02T14:41:20.532Z,18.05
2022-09-02T14:46:38.684Z,18.10
2022-09-02T14:51:47.928Z,20.10
2022-09-02T14:56:53.657Z,19.83
2022-09-02T15:01:59.168Z,19.80
2022-09-02T15:07:02.494Z,20.15
2022-09-02T15:12:06.030Z,18.85
2022-09-02T15:17:12.316Z,20.42
2022-09-02T15:22:16.642Z,20.30
2022-09-02T15:27:21.758Z,19.38
2022-09-02T15:32:29.556Z,19.10
2022-09-02T15:37:33.244Z,20.23
2022-09-02T15:42:40.037Z,21.15
2022-09-02T15:47:43.935Z,20.98
2022-09-02T15:52:47.743Z,20.67
2022-09-02T15:57:51.453Z,22.40
2022-09-02T16:02:54.983Z,20.63
2022-09-02T16:08:02.522Z,22.23
2022-09-02T16:13:16.337Z,23.05
2022-09-02T16:18:20.355Z,22.27
2022-09-02T16:23:24.638Z,23.15
2022-09-02T16:28:38.151Z,23.02
2022-09-02T16:33:41.715Z,23.75
2022-09-02T16:38:45.260Z,24.27
2022-09-02T16:43:49.625Z,22.98
2022-09-02T16:48:53.587Z,23.50
2022-09-02T16:54:03.525Z,23.45
2022-09-02T16:59:09.041Z,22.58
2022-09-02T17:04:15.338Z,24.05
2022-09-02T17:09:19.249Z,25.23
2022-09-02T17:14:23.309Z,24.95
2022-09-02T17:19:32.553Z,24.08
2022-09-02T17:24:36.217Z,25.10
2022-09-02T17:29:50.521Z,24.15
2022-09-02T17:34:54.911Z,26.23
2022-09-02T17:40:01.177Z,23.73
2022-09-02T17:45:07.278Z,23.90
2022-09-02T17:50:13.620Z,24.60
2022-09-02T17:55:20.833Z,24.50
2022-09-02T18:00:25.200Z,27.08
2022-09-02T18:05:52.950Z,25.02
2022-09-02T18:10:59.285Z,26.58
2022-09-02T18:22:03.454Z,24.50
2022-09-02T18:27:36.861Z,24.20
2022-09-02T18:32:46.446Z,24.08
2022-09-02T18:38:13.979Z,23.77
2022-09-02T18:43:20.740Z,26.10
2022-09-02T18:48:36.854Z,25.48
2022-09-02T18:53:48.717Z,24.67
2022-09-02T18:59:04.764Z,26.08
2022-09-02T19:04:12.279Z,26.42
2022-09-02T19:09:24.154Z,25.88
2022-09-02T19:14:29.424Z,25.35
2022-09-02T19:19:34.839Z,25.20
2022-09-02T19:24:47.030Z,27.08
2022-09-02T19:29:55.999Z,26.25
2022-09-02T19:35:09.291Z,25.83
2022-09-02T19:40:16.595Z,24.60
2022-09-02T19:45:22.247Z,25.70
2022-09-02T19:50:28.351Z,25.73
2022-09-02T19:55:33.922Z,23.95
2022-09-02T20:00:41.131Z,24.15
2022-09-02T20:05:45.302Z,24.02
2022-09-02T20:11:03.887Z,24.27
2022-09-02T20:16:22.166Z,22.92
2022-09-02T20:21:31.561Z,23.70
2022-09-02T20:27:03.795Z,23.25
2022-09-02T20:32:24.694Z,23.42
2022-09-02T20:37:58.968Z,24.48
2022-09-02T20:43:02.288Z,24.20
2022-09-02T20:48:24.248Z,24.35
2022-09-02T20:54:05.338Z,23.55
2022-09-02T20:59:19.738Z,24.80
2022-09-02T21:04:26.110Z,24.52
2022-09-02T21:09:39.474Z,25.05
2022-09-02T21:14:47.576Z,24.33
2022-09-02T21:20:55.212Z,24.30
2022-09-02T21:26:13.317Z,23.20
2022-09-02T21:31:40.000Z,23.45
2022-09-02T21:36:44.340Z,23.52
2022-09-02T21:41:57.407Z,25.75
2022-09-02T21:47:19.112Z,25.98
2022-09-02T21:52:48.900Z,24.77
2022-09-02T21:58:23.811Z,25.13
2022-09-02T22:03:41.655Z,25.52
2022-09-02T22:09:06.431Z,25.52
2022-09-02T22:14:22.587Z,25.23
2022-09-02T22:19:31.461Z,26.67
2022-09-02T22:24:35.277Z,26.13
2022-09-02T22:30:03.243Z,26.83
2022-09-02T22:35:23.009Z,23.85
2022-09-02T22:40:31.413Z,26.30
2022-09-02T22:46:11.760Z,25.85
2022-09-02T22:51:30.173Z,26.50
2022-09-02T22:57:12.702Z,25.42
2022-09-02T23:02:32.217Z,26.30
2022-09-02T23:07:36.051Z,25.92
2022-09-02T23:13:05.879Z,27.58
2022-09-02T23:18:24.572Z,25.15
2022-09-02T23:23:53.632Z,25.67
2022-09-02T23:29:20.479Z,26.42
2022-09-02T23:34:51.130Z,23.95
2022-09-02T23:40:51.810Z,24.85
2022-09-02T23:46:30.599Z,24.13
2022-09-02T23:52:06.318Z,25.30
2022-09-02T23:57:36.940Z,25.33
